createdAt,value
2019-02-02T00:00:01.867Z,990.57
2019-02-02T00:01:01.859Z,990.60
2019-02-02T00:02:01.883Z,990.64
2019-02-02T00:03:01.833Z,990.53
2019-02-02T00:04:01.818Z,990.52
2019-02-02T00:05:01.807Z,990.55
2019-02-02T00:06:01.799Z,990.51
2019-02-02T00:07:01.787Z,990.45
2019-02-02T00:08:01.775Z,990.37
2019-02-02T00:09:01.869Z,990.42
2019-02-02T00:10:01.783Z,990.40
2019-02-02T00:11:01.742Z,990.42
2019-02-02T00:12:01.731Z,990.41
2019-02-02T00:13:01.720Z,990.39
2019-02-02T00:14:01.710Z,990.37
2019-02-02T00:15:01.700Z,990.40
2019-02-02T00:16:01.687Z,990.42
2019-02-02T00:17:01.679Z,990.32
2019-02-02T00:18:01.666Z,990.33
2019-02-02T00:19:01.655Z,990.38
2019-02-02T00:20:01.649Z,990.32
2019-02-02T00:21:01.637Z,990.24
2019-02-02T00:22:01.623Z,990.29
2019-02-02T00:23:01.610Z,990.30
2019-02-02T00:24:01.598Z,990.22
2019-02-02T00:25:01.589Z,990.29
2019-02-02T00:26:01.582Z,990.26
2019-02-02T00:27:01.571Z,990.34
2019-02-02T00:28:01.562Z,990.34
2019-02-02T00:29:01.565Z,990.31
2019-02-02T00:30:01.534Z,990.29
2019-02-02T00:31:01.521Z,990.28
2019-02-02T00:32:01.509Z,990.27
2019-02-02T00:33:01.498Z,990.28
2019-02-02T00:34:01.494Z,990.22
2019-02-02T00:35:01.481Z,990.24
2019-02-02T00:36:01.469Z,990.22
2019-02-02T00:37:01.454Z,990.27
2019-02-02T00:38:01.444Z,990.29
2019-02-02T00:39:01.434Z,990.27
2019-02-02T00:40:01.424Z,990.24
2019-02-02T00:41:01.410Z,990.22
2019-02-02T00:42:01.404Z,990.23
2019-02-02T00:43:01.511Z,990.24
2019-02-02T00:44:01.379Z,990.26
2019-02-02T00:45:25.847Z,990.18
2019-02-02T00:46:25.854Z,990.16
2019-02-02T00:47:25.826Z,990.23
2019-02-02T00:48:25.816Z,990.18
2019-02-02T00:49:25.802Z,990.20
2019-02-02T00:50:25.792Z,990.21
2019-02-02T00:51:25.780Z,990.22
2019-02-02T00:52:25.771Z,990.23
2019-02-02T00:53:25.762Z,990.19
2019-02-02T00:54:25.750Z,990.24
2019-02-02T00:55:25.735Z,990.29
2019-02-02T00:56:25.723Z,990.25
2019-02-02T00:57:25.721Z,990.36
2019-02-02T00:58:25.712Z,990.38
2019-02-02T00:59:25.691Z,990.34
2019-02-02T01:00:25.680Z,990.40
2019-02-02T01:01:25.671Z,990.45
2019-02-02T01:02:25.656Z,990.45
2019-02-02T01:03:25.650Z,990.47
2019-02-02T01:04:25.638Z,990.50
2019-02-02T01:05:25.622Z,990.46
2019-02-02T01:06:25.614Z,990.47
2019-02-02T01:07:25.602Z,990.39
2019-02-02T01:08:25.592Z,990.42
2019-02-02T01:09:25.585Z,990.49
2019-02-02T01:10:25.572Z,990.46
2019-02-02T01:11:25.555Z,990.50
2019-02-02T01:12:25.544Z,990.49
2019-02-02T01:13:25.533Z,990.49
2019-02-02T01:14:25.532Z,990.38
2019-02-02T01:15:25.512Z,990.38
2019-02-02T01:16:25.499Z,990.45
2019-02-02T01:17:25.489Z,990.41
2019-02-02T01:18:25.482Z,990.39
2019-02-02T01:19:25.468Z,990.46
2019-02-02T01:20:25.455Z,990.40
2019-02-02T01:21:25.443Z,990.47
2019-02-02T01:22:25.436Z,990.44
2019-02-02T01:23:25.424Z,990.44
2019-02-02T01:24:25.413Z,990.48
2019-02-02T01:25:25.402Z,990.45
2019-02-02T01:26:25.420Z,990.53
2019-02-02T01:27:25.377Z,990.56
2019-02-02T01:28:25.366Z,990.57
2019-02-02T01:29:25.357Z,990.54
2019-02-02T01:30:25.343Z,990.56
2019-02-02T01:31:25.339Z,990.56
2019-02-02T01:32:25.321Z,990.55
2019-02-02T01:33:25.310Z,990.52
2019-02-02T01:34:25.301Z,990.50
2019-02-02T01:35:25.289Z,990.49
2019-02-02T01:36:25.278Z,990.47
2019-02-02T01:37:25.268Z,990.46
2019-02-02T01:38:25.254Z,990.44
2019-02-02T01:39:25.246Z,990.45
2019-02-02T01:40:25.242Z,990.45
2019-02-02T01:41:25.220Z,990.49
2019-02-02T01:42:25.212Z,990.44
2019-02-02T01:43:25.201Z,990.48
2019-02-02T01:44:25.196Z,990.42
2019-02-02T01:45:25.177Z,990.51
2019-02-02T01:46:25.165Z,990.47
2019-02-02T01:47:25.156Z,990.49
2019-02-02T01:48:25.143Z,990.51
2019-02-02T01:49:25.136Z,990.46
2019-02-02T01:50:25.127Z,990.49
2019-02-02T01:51:25.112Z,990.50
2019-02-02T01:52:25.097Z,990.50
2019-02-02T01:53:25.086Z,990.50
2019-02-02T01:54:25.081Z,990.49
2019-02-02T01:55:25.072Z,990.47
2019-02-02T01:56:25.061Z,990.47
2019-02-02T01:57:25.042Z,990.39
2019-02-02T01:58:25.031Z,990.39
2019-02-02T01:59:25.023Z,990.44
2019-02-02T02:00:25.008Z,990.37
2019-02-02T02:01:25.000Z,990.38
2019-02-02T02:02:24.986Z,990.30
2019-02-02T02:03:24.976Z,990.36
2019-02-02T02:04:24.965Z,990.30
2019-02-02T02:05:24.952Z,990.24
2019-02-02T02:06:24.948Z,990.20
2019-02-02T02:07:24.934Z,990.16
2019-02-02T02:08:24.926Z,990.14
2019-02-02T02:09:24.913Z,990.18
2019-02-02T02:10:24.899Z,990.20
2019-02-02T02:11:24.892Z,990.22
2019-02-02T02:12:24.876Z,990.23
2019-02-02T02:13:24.864Z,990.23
2019-02-02T02:14:24.854Z,990.23
2019-02-02T02:15:24.844Z,990.25
2019-02-02T02:16:24.835Z,990.31
2019-02-02T02:17:24.824Z,990.40
2019-02-02T02:18:24.809Z,990.37
2019-02-02T02:19:24.800Z,990.36
2019-02-02T02:20:24.789Z,990.34
2019-02-02T02:21:24.778Z,990.33
2019-02-02T02:22:24.764Z,990.33
2019-02-02T02:23:24.754Z,990.35
2019-02-02T02:24:24.742Z,990.36
2019-02-02T02:25:24.730Z,990.37
2019-02-02T02:26:24.720Z,990.35
2019-02-02T02:27:24.710Z,990.29
2019-02-02T02:28:28.093Z,990.27
2019-02-02T02:29:24.689Z,990.21
2019-02-02T02:30:24.676Z,990.19
2019-02-02T02:31:24.672Z,990.17
2019-02-02T02:32:24.654Z,990.21
2019-02-02T02:33:24.641Z,990.21
2019-02-02T02:34:24.638Z,990.16
2019-02-02T02:35:24.624Z,990.15
2019-02-02T02:36:24.612Z,990.14
2019-02-02T02:37:24.601Z,990.04
2019-02-02T02:38:24.586Z,990.05
2019-02-02T02:39:24.583Z,989.97
2019-02-02T02:40:24.568Z,989.92
2019-02-02T02:41:24.554Z,989.97
2019-02-02T02:42:24.539Z,989.97
2019-02-02T02:43:24.530Z,989.94
2019-02-02T02:44:24.528Z,989.87
2019-02-02T02:45:24.508Z,989.92
2019-02-02T02:46:24.504Z,989.87
2019-02-02T02:47:24.487Z,989.90
2019-02-02T02:48:24.472Z,989.91
2019-02-02T02:49:24.467Z,989.86
2019-02-02T02:50:24.463Z,989.90
2019-02-02T02:51:24.438Z,989.91
2019-02-02T02:52:24.427Z,989.94
2019-02-02T02:53:24.419Z,989.97
2019-02-02T02:54:24.415Z,990.02
2019-02-02T02:55:24.399Z,990.03
2019-02-02T02:56:24.392Z,990.09
2019-02-02T02:57:24.371Z,990.09
2019-02-02T02:58:24.361Z,990.17
2019-02-02T02:59:24.377Z,990.16
2019-02-02T03:00:24.342Z,990.19
2019-02-02T03:01:24.327Z,990.19
2019-02-02T03:02:24.315Z,990.13
2019-02-02T03:03:24.323Z,990.10
2019-02-02T03:04:24.294Z,990.01
2019-02-02T03:05:24.289Z,989.98
2019-02-02T03:06:24.271Z,989.89
2019-02-02T03:07:24.260Z,989.89
2019-02-02T03:08:24.253Z,989.87
2019-02-02T03:09:24.246Z,989.90
2019-02-02T03:10:24.226Z,989.90
2019-02-02T03:11:24.224Z,989.93
2019-02-02T03:12:24.203Z,989.91
2019-02-02T03:13:24.193Z,989.92
2019-02-02T03:14:24.188Z,989.90
2019-02-02T03:15:24.173Z,989.86
2019-02-02T03:16:24.158Z,989.83
2019-02-02T03:17:24.168Z,989.81
2019-02-02T03:18:24.136Z,989.76
2019-02-02T03:19:24.125Z,989.82
2019-02-02T03:20:24.125Z,989.78
2019-02-02T03:21:24.102Z,989.87
2019-02-02T03:22:24.162Z,989.84
2019-02-02T03:23:24.081Z,989.85
2019-02-02T03:24:24.075Z,989.86
2019-02-02T03:25:24.062Z,989.83
2019-02-02T03:26:24.044Z,989.78
2019-02-02T03:27:24.038Z,989.75
2019-02-02T03:28:24.022Z,989.73
2019-02-02T03:29:24.012Z,989.72
2019-02-02T03:30:24.012Z,989.70
2019-02-02T03:31:23.991Z,989.65
2019-02-02T03:32:23.978Z,989.72
2019-02-02T03:33:23.978Z,989.69
2019-02-02T03:34:23.961Z,989.73
2019-02-02T03:35:23.957Z,989.73
2019-02-02T03:36:23.933Z,989.71
2019-02-02T03:37:23.921Z,989.76
2019-02-02T03:38:23.910Z,989.68
2019-02-02T03:39:23.901Z,989.70
2019-02-02T03:40:23.893Z,989.65
2019-02-02T03:41:23.875Z,989.66
2019-02-02T03:42:23.870Z,989.62
2019-02-02T03:43:23.860Z,989.70
2019-02-02T03:44:23.845Z,989.67
2019-02-02T03:45:23.930Z,989.70
2019-02-02T03:46:23.823Z,989.75
2019-02-02T03:47:23.808Z,989.75
2019-02-02T03:48:23.798Z,989.83
2019-02-02T03:49:23.789Z,989.83
2019-02-02T03:50:23.785Z,989.84
2019-02-02T03:51:23.767Z,989.89
2019-02-02T03:52:23.758Z,989.86
2019-02-02T03:53:23.752Z,989.86
2019-02-02T03:54:23.734Z,989.87
2019-02-02T03:55:23.722Z,989.85
2019-02-02T03:56:23.712Z,989.85
2019-02-02T03:57:23.697Z,989.83
2019-02-02T03:58:23.687Z,989.86
2019-02-02T03:59:23.673Z,989.84
2019-02-02T04:00:23.664Z,989.90
2019-02-02T04:01:23.654Z,989.90
2019-02-02T04:02:23.647Z,989.98
2019-02-02T04:03:23.633Z,990.03
2019-02-02T04:04:23.617Z,989.99
2019-02-02T04:05:23.610Z,989.96
2019-02-02T04:06:23.595Z,990.00
2019-02-02T04:07:23.585Z,989.94
2019-02-02T04:08:23.573Z,989.96
2019-02-02T04:09:23.562Z,989.98
2019-02-02T04:10:23.566Z,990.05
2019-02-02T04:11:23.575Z,990.08
2019-02-02T04:12:23.533Z,990.07
2019-02-02T04:13:23.534Z,990.00
2019-02-02T04:14:23.543Z,989.98
2019-02-02T04:15:23.550Z,989.98
2019-02-02T04:16:23.483Z,989.94
2019-02-02T04:17:23.484Z,989.99
2019-02-02T04:18:23.485Z,989.96
2019-02-02T04:19:23.487Z,989.92
2019-02-02T04:20:23.490Z,989.90
2019-02-02T04:21:23.430Z,989.82
2019-02-02T04:22:23.417Z,989.81
2019-02-02T04:23:23.411Z,989.88
2019-02-02T04:24:23.400Z,989.89
2019-02-02T04:25:23.384Z,989.98
2019-02-02T04:26:23.370Z,989.98
2019-02-02T04:27:23.367Z,990.03
2019-02-02T04:28:23.355Z,990.06
2019-02-02T04:29:23.335Z,990.03
2019-02-02T04:30:23.331Z,990.03
2019-02-02T04:31:23.313Z,990.00
2019-02-02T04:32:23.301Z,989.90
2019-02-02T04:33:23.291Z,989.86
2019-02-02T04:34:23.279Z,989.77
2019-02-02T04:35:23.269Z,989.79
2019-02-02T04:36:23.257Z,989.77
2019-02-02T04:37:23.245Z,989.73
2019-02-02T04:38:23.240Z,989.69
2019-02-02T04:39:23.226Z,989.72
2019-02-02T04:40:23.210Z,989.71
2019-02-02T04:41:23.203Z,989.70
2019-02-02T04:42:23.202Z,989.71
2019-02-02T04:43:23.179Z,989.80
2019-02-02T04:44:23.166Z,989.79
2019-02-02T04:45:23.157Z,989.84
2019-02-02T04:46:23.144Z,989.92
2019-02-02T04:47:23.138Z,989.96
2019-02-02T04:48:23.120Z,989.96
2019-02-02T04:49:23.108Z,990.01
2019-02-02T04:50:23.098Z,990.00
2019-02-02T04:51:23.093Z,990.05
2019-02-02T04:52:23.076Z,990.12
2019-02-02T04:53:23.064Z,990.09
2019-02-02T04:54:23.056Z,989.96
2019-02-02T04:55:23.042Z,989.96
2019-02-02T04:56:23.034Z,989.97
2019-02-02T04:57:23.020Z,989.90
2019-02-02T04:58:23.016Z,989.93
2019-02-02T04:59:29.350Z,989.91
2019-02-02T05:00:47.476Z,989.90
2019-02-02T05:01:47.464Z,989.83
2019-02-02T05:02:47.450Z,989.72
2019-02-02T05:03:47.436Z,989.65
2019-02-02T05:04:47.422Z,989.58
2019-02-02T05:05:47.412Z,989.46
2019-02-02T05:06:47.404Z,989.51
2019-02-02T05:07:47.394Z,989.40
2019-02-02T05:08:47.378Z,989.37
2019-02-02T05:09:47.366Z,989.39
2019-02-02T05:10:47.356Z,989.41
2019-02-02T05:11:47.346Z,989.41
2019-02-02T05:12:47.332Z,989.41
2019-02-02T05:13:47.328Z,989.49
2019-02-02T05:14:47.316Z,989.55
2019-02-02T05:15:47.305Z,989.50
2019-02-02T05:16:47.286Z,989.51
2019-02-02T05:17:47.284Z,989.49
2019-02-02T05:18:47.271Z,989.47
2019-02-02T05:19:47.253Z,989.44
2019-02-02T05:20:47.242Z,989.42
2019-02-02T05:21:47.230Z,989.47
2019-02-02T05:22:47.218Z,989.44
2019-02-02T05:23:47.212Z,989.49
2019-02-02T05:24:47.198Z,989.55
2019-02-02T05:25:47.192Z,989.59
2019-02-02T05:26:47.178Z,989.67
2019-02-02T05:27:47.295Z,989.64
2019-02-02T05:28:47.154Z,989.72
2019-02-02T05:29:47.139Z,989.68
2019-02-02T05:30:47.131Z,989.76
2019-02-02T05:31:47.120Z,989.79
2019-02-02T05:32:47.105Z,989.74
2019-02-02T05:33:47.095Z,989.72
2019-02-02T05:34:47.083Z,989.75
2019-02-02T05:35:47.075Z,989.76
2019-02-02T05:36:47.061Z,989.76
2019-02-02T05:37:47.053Z,989.68
2019-02-02T05:38:47.039Z,989.68
2019-02-02T05:39:47.027Z,989.62
2019-02-02T05:40:47.017Z,989.57
2019-02-02T05:41:47.005Z,989.52
2019-02-02T05:42:46.992Z,989.48
2019-02-02T05:43:46.983Z,989.43
2019-02-02T05:44:46.969Z,989.42
2019-02-02T05:45:46.961Z,989.48
2019-02-02T05:46:46.956Z,989.37
2019-02-02T05:47:46.935Z,989.45
2019-02-02T05:48:46.931Z,989.51
2019-02-02T05:49:49.602Z,989.59
2019-02-02T05:50:46.902Z,989.64
2019-02-02T05:51:46.891Z,989.68
2019-02-02T05:52:46.884Z,989.68
2019-02-02T05:53:46.869Z,989.65
2019-02-02T05:54:46.857Z,989.67
2019-02-02T05:55:46.852Z,989.64
2019-02-02T05:56:46.835Z,989.68
2019-02-02T05:57:46.823Z,989.72
2019-02-02T05:58:46.819Z,989.74
2019-02-02T05:59:52.864Z,989.76
2019-02-02T06:01:11.274Z,989.85
2019-02-02T06:02:11.268Z,989.86
2019-02-02T06:03:11.259Z,989.86
2019-02-02T06:04:11.242Z,989.90
2019-02-02T06:05:11.235Z,989.97
2019-02-02T06:06:11.223Z,989.96
2019-02-02T06:07:11.209Z,989.95
2019-02-02T06:08:11.202Z,990.00
2019-02-02T06:09:11.186Z,989.97
2019-02-02T06:10:11.173Z,990.02
2019-02-02T06:11:11.163Z,990.09
2019-02-02T06:12:11.154Z,990.03
2019-02-02T06:13:11.143Z,990.01
2019-02-02T06:14:11.127Z,989.98
2019-02-02T06:15:11.121Z,990.04
2019-02-02T06:16:11.112Z,990.05
2019-02-02T06:17:11.093Z,990.04
2019-02-02T06:18:11.084Z,990.04
2019-02-02T06:19:11.071Z,990.05
2019-02-02T06:20:11.061Z,990.03
2019-02-02T06:21:11.055Z,990.00
2019-02-02T06:22:11.040Z,989.97
2019-02-02T06:23:11.026Z,989.99
2019-02-02T06:24:11.014Z,990.05
2019-02-02T06:25:11.008Z,990.03
2019-02-02T06:26:10.998Z,990.04
2019-02-02T06:27:10.987Z,990.11
2019-02-02T06:28:10.971Z,990.10
2019-02-02T06:29:10.957Z,990.09
2019-02-02T06:30:10.949Z,990.10
2019-02-02T06:31:10.937Z,990.16
2019-02-02T06:32:12.168Z,990.15
2019-02-02T06:33:10.912Z,990.14
2019-02-02T06:34:10.909Z,990.11
2019-02-02T06:35:10.895Z,990.15
2019-02-02T06:36:10.879Z,990.15
2019-02-02T06:37:10.867Z,990.19
2019-02-02T06:38:10.857Z,990.22
2019-02-02T06:39:10.845Z,990.24
2019-02-02T06:40:10.835Z,990.21
2019-02-02T06:41:10.822Z,990.29
2019-02-02T06:42:10.828Z,990.30
2019-02-02T06:43:10.801Z,990.26
2019-02-02T06:44:10.874Z,990.28
2019-02-02T06:45:10.777Z,990.26
2019-02-02T06:46:10.771Z,990.30
2019-02-02T06:47:10.754Z,990.26
2019-02-02T06:48:10.876Z,990.28
2019-02-02T06:49:10.732Z,990.29
2019-02-02T06:50:10.733Z,990.34
2019-02-02T06:51:10.711Z,990.32
2019-02-02T06:52:10.702Z,990.32
2019-02-02T06:53:10.696Z,990.26
2019-02-02T06:54:10.675Z,990.24
2019-02-02T06:55:10.665Z,990.21
2019-02-02T06:56:10.658Z,990.18
2019-02-02T06:57:10.645Z,990.15
2019-02-02T06:58:10.633Z,990.13
2019-02-02T06:59:10.621Z,990.15
2019-02-02T07:00:16.211Z,990.11
2019-02-02T07:01:10.599Z,990.06
2019-02-02T07:02:10.586Z,990.01
2019-02-02T07:03:10.576Z,989.93
2019-02-02T07:04:10.563Z,989.94
2019-02-02T07:05:10.554Z,989.94
2019-02-02T07:06:10.541Z,989.90
2019-02-02T07:07:10.529Z,989.90
2019-02-02T07:08:10.517Z,989.90
2019-02-02T07:09:10.507Z,989.89
2019-02-02T07:10:10.497Z,989.89
2019-02-02T07:11:10.485Z,989.92
2019-02-02T07:12:10.475Z,990.01
2019-02-02T07:13:10.462Z,990.00
2019-02-02T07:14:10.451Z,989.99
2019-02-02T07:15:10.440Z,990.03
2019-02-02T07:16:10.432Z,990.03
2019-02-02T07:17:10.425Z,990.12
2019-02-02T07:18:10.407Z,990.04
2019-02-02T07:19:10.394Z,990.01
2019-02-02T07:20:10.384Z,990.08
2019-02-02T07:21:10.373Z,990.11
2019-02-02T07:22:10.362Z,990.13
2019-02-02T07:23:10.354Z,990.16
2019-02-02T07:24:10.339Z,990.14
2019-02-02T07:25:10.327Z,990.17
2019-02-02T07:26:10.317Z,990.23
2019-02-02T07:27:10.309Z,990.26
2019-02-02T07:28:10.299Z,990.28
2019-02-02T07:29:10.287Z,990.34
2019-02-02T07:30:10.280Z,990.34
2019-02-02T07:31:10.263Z,990.44
2019-02-02T07:32:10.258Z,990.40
2019-02-02T07:33:10.242Z,990.46
2019-02-02T07:34:10.229Z,990.45
2019-02-02T07:35:10.220Z,990.49
2019-02-02T07:36:10.210Z,990.50
2019-02-02T07:37:10.201Z,990.49
2019-02-02T07:38:10.295Z,990.50
2019-02-02T07:39:10.174Z,990.51
2019-02-02T07:40:10.161Z,990.51
2019-02-02T07:41:10.151Z,990.54
2019-02-02T07:42:10.143Z,990.47
2019-02-02T07:43:10.198Z,990.53
2019-02-02T07:44:10.116Z,990.44
2019-02-02T07:45:10.113Z,990.48
2019-02-02T07:46:15.113Z,990.50
2019-02-02T07:47:10.091Z,990.54
2019-02-02T07:48:10.071Z,990.64
2019-02-02T07:49:10.064Z,990.62
2019-02-02T07:50:10.050Z,990.64
2019-02-02T07:51:10.039Z,990.62
2019-02-02T07:52:10.026Z,990.58
2019-02-02T07:53:10.019Z,990.69
2019-02-02T07:54:10.004Z,990.71
2019-02-02T07:55:09.991Z,990.71
2019-02-02T07:56:09.990Z,990.72
2019-02-02T07:57:09.975Z,990.75
2019-02-02T07:58:09.958Z,990.82
2019-02-02T07:59:09.947Z,990.75
2019-02-02T08:00:09.942Z,990.74
2019-02-02T08:01:09.936Z,990.61
2019-02-02T08:02:09.911Z,990.61
2019-02-02T08:03:09.900Z,990.57
2019-02-02T08:04:09.894Z,990.64
2019-02-02T08:05:09.880Z,990.63
2019-02-02T08:06:09.868Z,990.58
2019-02-02T08:07:09.860Z,990.65
2019-02-02T08:08:09.847Z,990.58
2019-02-02T08:09:09.835Z,990.58
2019-02-02T08:10:09.822Z,990.58
2019-02-02T08:11:09.810Z,990.58
2019-02-02T08:12:09.802Z,990.61
2019-02-02T08:13:09.790Z,990.60
2019-02-02T08:14:11.451Z,990.63
2019-02-02T08:15:09.766Z,990.64
2019-02-02T08:16:09.757Z,990.61
2019-02-02T08:17:09.743Z,990.67
2019-02-02T08:18:09.733Z,990.64
2019-02-02T08:19:09.727Z,990.67
2019-02-02T08:20:09.708Z,990.67
2019-02-02T08:21:09.704Z,990.74
2019-02-02T08:22:09.687Z,990.75
2019-02-02T08:23:09.679Z,990.76
2019-02-02T08:24:09.665Z,990.85
2019-02-02T08:25:09.660Z,990.83
2019-02-02T08:26:09.645Z,990.87
2019-02-02T08:27:09.630Z,990.92
2019-02-02T08:28:09.618Z,990.98
2019-02-02T08:29:09.617Z,991.03
2019-02-02T08:30:09.596Z,991.07
2019-02-02T08:31:09.589Z,991.07
2019-02-02T08:32:09.621Z,991.01
2019-02-02T08:33:09.563Z,990.98
2019-02-02T08:34:09.555Z,990.99
2019-02-02T08:35:09.541Z,991.00
2019-02-02T08:36:09.530Z,990.96
2019-02-02T08:37:09.521Z,990.89
2019-02-02T08:38:09.507Z,990.93
2019-02-02T08:39:09.498Z,990.90
2019-02-02T08:40:09.485Z,990.98
2019-02-02T08:41:09.478Z,990.97
2019-02-02T08:42:09.464Z,991.00
2019-02-02T08:43:09.451Z,991.02
2019-02-02T08:44:09.441Z,991.01
2019-02-02T08:45:09.448Z,990.99
2019-02-02T08:46:09.451Z,991.00
2019-02-02T08:47:09.454Z,991.02
2019-02-02T08:48:09.400Z,990.98
2019-02-02T08:49:09.398Z,990.98
2019-02-02T08:50:09.451Z,990.95
2019-02-02T08:51:09.399Z,991.01
2019-02-02T08:52:09.403Z,990.94
2019-02-02T08:53:09.348Z,990.90
2019-02-02T08:54:09.334Z,990.96
2019-02-02T08:55:09.422Z,990.89
2019-02-02T08:56:09.313Z,990.93
2019-02-02T08:57:09.302Z,990.93
2019-02-02T08:58:09.336Z,990.91
2019-02-02T08:59:09.275Z,990.93
2019-02-02T09:00:09.261Z,991.02
2019-02-02T09:01:09.261Z,991.03
2019-02-02T09:02:09.241Z,991.13
2019-02-02T09:03:09.258Z,991.13
2019-02-02T09:04:09.218Z,991.10
2019-02-02T09:05:09.207Z,991.07
2019-02-02T09:06:09.195Z,991.04
2019-02-02T09:07:09.186Z,991.06
2019-02-02T09:08:09.174Z,991.06
2019-02-02T09:09:09.285Z,991.05
2019-02-02T09:10:09.158Z,991.16
2019-02-02T09:11:09.139Z,991.26
2019-02-02T09:12:09.128Z,991.28
2019-02-02T09:13:09.120Z,991.35
2019-02-02T09:14:09.106Z,991.30
2019-02-02T09:15:09.097Z,991.35
2019-02-02T09:16:09.086Z,991.31
2019-02-02T09:17:09.074Z,991.31
2019-02-02T09:18:09.065Z,991.34
2019-02-02T09:19:09.057Z,991.31
2019-02-02T09:20:09.043Z,991.31
2019-02-02T09:21:09.034Z,991.29
2019-02-02T09:22:09.022Z,991.35
2019-02-02T09:23:09.005Z,991.34
2019-02-02T09:24:09.001Z,991.42
2019-02-02T09:25:08.986Z,991.42
2019-02-02T09:26:08.973Z,991.45
2019-02-02T09:27:08.963Z,991.37
2019-02-02T09:28:08.950Z,991.38
2019-02-02T09:29:10.514Z,991.40
2019-02-02T09:30:08.928Z,991.42
2019-02-02T09:31:15.847Z,991.42
2019-02-02T09:32:33.391Z,991.50
2019-02-02T09:33:33.382Z,991.48
2019-02-02T09:34:33.369Z,991.42
2019-02-02T09:35:33.356Z,991.40
2019-02-02T09:36:33.350Z,991.35
2019-02-02T09:37:33.333Z,991.30
2019-02-02T09:38:33.369Z,991.36
2019-02-02T09:39:33.313Z,991.43
2019-02-02T09:40:33.300Z,991.45
2019-02-02T09:41:33.289Z,991.48
2019-02-02T09:42:33.278Z,991.54
2019-02-02T09:43:33.271Z,991.48
2019-02-02T09:44:33.258Z,991.43
2019-02-02T09:45:33.245Z,991.41
2019-02-02T09:46:33.235Z,991.36
2019-02-02T09:47:33.222Z,991.36
2019-02-02T09:48:33.212Z,991.41
2019-02-02T09:49:33.202Z,991.40
2019-02-02T09:50:33.194Z,991.38
2019-02-02T09:51:33.179Z,991.43
2019-02-02T09:52:33.166Z,991.44
2019-02-02T09:53:33.157Z,991.42
2019-02-02T09:54:33.145Z,991.46
2019-02-02T09:55:33.136Z,991.43
2019-02-02T09:56:33.261Z,991.44
2019-02-02T09:57:33.118Z,991.37
2019-02-02T09:58:33.102Z,991.40
2019-02-02T09:59:33.096Z,991.38
2019-02-02T10:00:33.079Z,991.41
2019-02-02T10:01:33.068Z,991.38
2019-02-02T10:02:33.055Z,991.38
2019-02-02T10:03:33.046Z,991.40
2019-02-02T10:04:33.034Z,991.44
2019-02-02T10:05:33.024Z,991.46
2019-02-02T10:06:33.012Z,991.42
2019-02-02T10:07:33.001Z,991.52
2019-02-02T10:08:32.991Z,991.53
2019-02-02T10:09:32.979Z,991.49
2019-02-02T10:10:32.966Z,991.43
2019-02-02T10:11:32.955Z,991.45
2019-02-02T10:12:32.945Z,991.52
2019-02-02T10:13:32.933Z,991.49
2019-02-02T10:14:32.923Z,991.49
2019-02-02T10:15:32.913Z,991.52
2019-02-02T10:16:32.901Z,991.43
2019-02-02T10:17:32.890Z,991.40
2019-02-02T10:18:32.877Z,991.41
2019-02-02T10:19:32.877Z,991.40
2019-02-02T10:20:32.865Z,991.41
2019-02-02T10:21:32.845Z,991.39
2019-02-02T10:22:32.839Z,991.48
2019-02-02T10:23:32.822Z,991.48
2019-02-02T10:24:32.810Z,991.54
2019-02-02T10:25:32.801Z,991.50
2019-02-02T10:26:32.787Z,991.48
2019-02-02T10:27:32.776Z,991.49
2019-02-02T10:28:32.774Z,991.46
2019-02-02T10:29:32.760Z,991.47
2019-02-02T10:30:32.742Z,991.41
2019-02-02T10:31:39.662Z,991.48
2019-02-02T10:32:57.199Z,991.49
2019-02-02T10:33:57.194Z,991.44
2019-02-02T10:34:57.177Z,991.44
2019-02-02T10:35:57.175Z,991.42
2019-02-02T10:36:57.159Z,991.42
2019-02-02T10:37:57.153Z,991.36
2019-02-02T10:38:57.131Z,991.30
2019-02-02T10:39:57.120Z,991.29
2019-02-02T10:40:57.238Z,991.30
2019-02-02T10:41:57.099Z,991.31
2019-02-02T10:42:57.085Z,991.34
2019-02-02T10:43:57.075Z,991.42
2019-02-02T10:44:57.061Z,991.43
2019-02-02T10:45:57.057Z,991.49
2019-02-02T10:46:57.043Z,991.43
2019-02-02T10:47:57.031Z,991.46
2019-02-02T10:48:57.015Z,991.46
2019-02-02T10:49:57.004Z,991.47
2019-02-02T10:50:56.994Z,991.39
2019-02-02T10:51:56.981Z,991.37
2019-02-02T10:52:56.976Z,991.37
2019-02-02T10:53:56.959Z,991.38
2019-02-02T10:54:56.947Z,991.44
2019-02-02T10:55:56.942Z,991.47
2019-02-02T10:56:56.924Z,991.56
2019-02-02T10:57:56.914Z,991.42
2019-02-02T10:58:56.908Z,991.52
2019-02-02T10:59:56.889Z,991.51
2019-02-02T11:00:56.883Z,991.57
2019-02-02T11:01:56.867Z,991.52
2019-02-02T11:02:56.854Z,991.55
2019-02-02T11:03:56.842Z,991.53
2019-02-02T11:04:56.985Z,991.55
2019-02-02T11:05:56.878Z,991.52
2019-02-02T11:06:56.835Z,991.50
2019-02-02T11:07:56.865Z,991.51
2019-02-02T11:08:56.785Z,991.51
2019-02-02T11:09:56.796Z,991.50
2019-02-02T11:10:56.813Z,991.51
2019-02-02T11:11:56.789Z,991.61
2019-02-02T11:12:56.898Z,991.52
2019-02-02T11:13:56.762Z,991.49
2019-02-02T11:14:56.964Z,991.50
2019-02-02T11:15:56.758Z,991.53
2019-02-02T11:16:56.693Z,991.51
2019-02-02T11:17:56.690Z,991.50
2019-02-02T11:18:56.772Z,991.52
2019-02-02T11:19:56.662Z,991.52
2019-02-02T11:20:56.707Z,991.52
2019-02-02T11:21:56.640Z,991.49
2019-02-02T11:22:56.739Z,991.48
2019-02-02T11:23:56.687Z,991.47
2019-02-02T11:24:56.617Z,991.50
2019-02-02T11:25:56.714Z,991.42
2019-02-02T11:26:56.586Z,991.47
2019-02-02T11:27:56.698Z,991.50
2019-02-02T11:28:56.654Z,991.48
2019-02-02T11:29:56.713Z,991.50
2019-02-02T11:30:56.534Z,991.48
2019-02-02T11:32:02.962Z,991.49
2019-02-02T11:33:20.998Z,991.44
2019-02-02T11:34:20.982Z,991.48
2019-02-02T11:35:20.970Z,991.44
2019-02-02T11:36:20.962Z,991.39
2019-02-02T11:37:20.952Z,991.37
2019-02-02T11:38:20.936Z,991.35
2019-02-02T11:39:20.924Z,991.31
2019-02-02T11:40:20.910Z,991.27
2019-02-02T11:41:20.907Z,991.34
2019-02-02T11:42:20.888Z,991.27
2019-02-02T11:43:20.876Z,991.23
2019-02-02T11:44:20.872Z,991.31
2019-02-02T11:45:20.853Z,991.27
2019-02-02T11:46:20.858Z,991.27
2019-02-02T11:47:20.829Z,991.27
2019-02-02T11:48:20.818Z,991.20
2019-02-02T11:49:23.824Z,991.25
2019-02-02T11:50:20.795Z,991.32
2019-02-02T11:51:20.784Z,991.31
2019-02-02T11:52:23.206Z,991.26
2019-02-02T11:53:20.760Z,991.38
2019-02-02T11:54:20.873Z,991.41
2019-02-02T11:55:20.738Z,991.43
2019-02-02T11:56:20.725Z,991.49
2019-02-02T11:57:20.716Z,991.45
2019-02-02T11:58:20.719Z,991.41
2019-02-02T11:59:20.755Z,991.46
2019-02-02T12:00:20.688Z,991.44
2019-02-02T12:01:20.670Z,991.41
2019-02-02T12:02:20.656Z,991.46
2019-02-02T12:03:20.648Z,991.38
2019-02-02T12:04:20.634Z,991.45
2019-02-02T12:05:20.622Z,991.53
2019-02-02T12:06:20.609Z,991.56
2019-02-02T12:07:20.599Z,991.66
2019-02-02T12:08:20.591Z,991.73
2019-02-02T12:09:20.579Z,991.75
2019-02-02T12:10:20.567Z,991.84
2019-02-02T12:11:20.554Z,991.84
2019-02-02T12:12:20.541Z,991.85
2019-02-02T12:13:20.537Z,991.76
2019-02-02T12:14:20.518Z,991.74
2019-02-02T12:15:20.512Z,991.70
2019-02-02T12:16:20.580Z,991.72
2019-02-02T12:17:20.485Z,991.75
2019-02-02T12:18:20.471Z,991.75
2019-02-02T12:19:20.462Z,991.78
2019-02-02T12:20:20.452Z,991.79
2019-02-02T12:21:20.444Z,991.80
2019-02-02T12:22:20.432Z,991.78
2019-02-02T12:23:20.419Z,991.81
2019-02-02T12:24:20.403Z,991.78
2019-02-02T12:25:20.392Z,991.75
2019-02-02T12:26:20.381Z,991.68
2019-02-02T12:27:20.528Z,991.70
2019-02-02T12:28:20.362Z,991.74
2019-02-02T12:29:20.348Z,991.71
2019-02-02T12:30:20.338Z,991.72